sensor_id;sensor_type;location;lat;lon;timestamp;temperature;humidity
14210;DHT22;7188;56.070;12.698;2023-02-28T00:01:21;1.00;1.00
14210;DHT22;7188;56.070;12.698;2023-02-28T00:03:47;1.00;99.90
14210;DHT22;7188;56.070;12.698;2023-02-28T00:06:13;0.60;99.90
14210;DHT22;7188;56.070;12.698;2023-02-28T00:09:01;0.30;41.10
14210;DHT22;7188;56.070;12.698;2023-02-28T00:11:26;0.30;99.90
14210;DHT22;7188;56.070;12.698;2023-02-28T00:13:52;0.30;1.00
14210;DHT22;7188;56.070;12.698;2023-02-28T00:16:19;0.50;92.20
14210;DHT22;7188;56.070;12.698;2023-02-28T00:18:46;0.40;1.00
14210;DHT22;7188;56.070;12.698;2023-02-28T00:21:13;0.30;99.90
14210;DHT22;7188;56.070;12.698;2023-02-28T00:23:39;0.80;1.00
14210;DHT22;7188;56.070;12.698;2023-02-28T00:26:05;1.20;99.90
14210;DHT22;7188;56.070;12.698;2023-02-28T00:28:31;1.50;1.00
14210;DHT22;7188;56.070;12.698;2023-02-28T00:30:59;1.20;1.00
14210;DHT22;7188;56.070;12.698;2023-02-28T00:33:25;0.80;72.80
14210;DHT22;7188;56.070;12.698;2023-02-28T00:35:51;0.80;99.90
14210;DHT22;7188;56.070;12.698;2023-02-28T00:38:17;0.70;1.00
14210;DHT22;7188;56.070;12.698;2023-02-28T00:40:43;0.70;1.00
14210;DHT22;7188;56.070;12.698;2023-02-28T00:43:08;0.50;99.90
14210;DHT22;7188;56.070;12.698;2023-02-28T00:45:34;0.20;99.90
14210;DHT22;7188;56.070;12.698;2023-02-28T00:48:00;0.00;99.90
14210;DHT22;7188;56.070;12.698;2023-02-28T00:50:25;-0.20;47.10
14210;DHT22;7188;56.070;12.698;2023-02-28T00:52:51;0.00;1.00
14210;DHT22;7188;56.070;12.698;2023-02-28T00:55:17;0.00;1.00
14210;DHT22;7188;56.070;12.698;2023-02-28T00:57:43;-0.10;1.00
14210;DHT22;7188;56.070;12.698;2023-02-28T01:00:10;-0.10;1.00
14210;DHT22;7188;56.070;12.698;2023-02-28T01:02:36;-0.20;1.00
14210;DHT22;7188;56.070;12.698;2023-02-28T01:05:02;-0.40;1.00
14210;DHT22;7188;56.070;12.698;2023-02-28T01:07:28;-0.50;1.00
14210;DHT22;7188;56.070;12.698;2023-02-28T01:09:54;-0.30;99.90
14210;DHT22;7188;56.070;12.698;2023-02-28T01:12:20;0.50;99.90
14210;DHT22;7188;56.070;12.698;2023-02-28T01:14:45;0.60;18.10
14210;DHT22;7188;56.070;12.698;2023-02-28T01:17:30;0.20;1.00
14210;DHT22;7188;56.070;12.698;2023-02-28T01:19:55;0.10;1.00
14210;DHT22;7188;56.070;12.698;2023-02-28T01:22:21;-0.10;99.90
14210;DHT22;7188;56.070;12.698;2023-02-28T01:24:47;-0.10;1.00
14210;DHT22;7188;56.070;12.698;2023-02-28T01:27:13;0.00;1.00
14210;DHT22;7188;56.070;12.698;2023-02-28T01:29:57;0.30;1.00
14210;DHT22;7188;56.070;12.698;2023-02-28T01:32:23;0.60;45.80
14210;DHT22;7188;56.070;12.698;2023-02-28T01:34:49;0.60;99.90
14210;DHT22;7188;56.070;12.698;2023-02-28T01:37:14;0.50;1.00
14210;DHT22;7188;56.070;12.698;2023-02-28T01:39:40;0.30;99.90
14210;DHT22;7188;56.070;12.698;2023-02-28T01:42:07;0.40;99.90
14210;DHT22;7188;56.070;12.698;2023-02-28T01:45:04;0.80;32.50
14210;DHT22;7188;56.070;12.698;2023-02-28T01:47:36;0.40;1.00
14210;DHT22;7188;56.070;12.698;2023-02-28T01:50:07;0.00;27.30
14210;DHT22;7188;56.070;12.698;2023-02-28T01:52:35;0.10;99.90
14210;DHT22;7188;56.070;12.698;2023-02-28T01:55:02;0.10;99.90
14210;DHT22;7188;56.070;12.698;2023-02-28T01:57:34;-0.10;1.00
14210;DHT22;7188;56.070;12.698;2023-02-28T02:00:09;-0.40;1.00
14210;DHT22;7188;56.070;12.698;2023-02-28T02:02:36;-0.40;1.00
14210;DHT22;7188;56.070;12.698;2023-02-28T02:05:18;0.20;99.90
14210;DHT22;7188;56.070;12.698;2023-02-28T02:07:46;0.40;24.20
14210;DHT22;7188;56.070;12.698;2023-02-28T02:10:16;0.10;99.90
14210;DHT22;7188;56.070;12.698;2023-02-28T02:15:49;-0.40;99.90
14210;DHT22;7188;56.070;12.698;2023-02-28T02:18:22;-0.50;1.00
14210;DHT22;7188;56.070;12.698;2023-02-28T02:38:39;0.80;1.00
14210;DHT22;7188;56.070;12.698;2023-02-28T02:41:35;0.90;99.90
14210;DHT22;7188;56.070;12.698;2023-02-28T02:44:13;1.10;99.90
14210;DHT22;7188;56.070;12.698;2023-02-28T02:46:44;1.20;1.00
14210;DHT22;7188;56.070;12.698;2023-02-28T02:49:18;1.40;99.90
14210;DHT22;7188;56.070;12.698;2023-02-28T02:51:47;0.90;1.00
14210;DHT22;7188;56.070;12.698;2023-02-28T02:54:29;0.30;99.90
14210;DHT22;7188;56.070;12.698;2023-02-28T02:57:01;-0.10;99.90
14210;DHT22;7188;56.070;12.698;2023-02-28T02:59:53;-0.40;99.90
14210;DHT22;7188;56.070;12.698;2023-02-28T03:02:21;-0.70;99.90
14210;DHT22;7188;56.070;12.698;2023-02-28T03:05:01;-0.80;99.90
14210;DHT22;7188;56.070;12.698;2023-02-28T03:07:27;-0.10;99.90
14210;DHT22;7188;56.070;12.698;2023-02-28T03:09:55;0.40;84.80
14210;DHT22;7188;56.070;12.698;2023-02-28T03:12:45;0.60;67.80
14210;DHT22;7188;56.070;12.698;2023-02-28T03:15:27;0.60;99.90
14210;DHT22;7188;56.070;12.698;2023-02-28T03:18:10;0.70;1.00
14210;DHT22;7188;56.070;12.698;2023-02-28T03:24:10;0.30;99.90
14210;DHT22;7188;56.070;12.698;2023-02-28T03:26:22;-0.10;99.90
14210;DHT22;7188;56.070;12.698;2023-02-28T03:29:18;-0.60;15.30
14210;DHT22;7188;56.070;12.698;2023-02-28T03:32:09;-0.80;1.00
14210;DHT22;7188;56.070;12.698;2023-02-28T03:34:45;-1.00;1.00
14210;DHT22;7188;56.070;12.698;2023-02-28T03:37:16;-0.60;1.00
14210;DHT22;7188;56.070;12.698;2023-02-28T03:40:03;-0.70;1.00
14210;DHT22;7188;56.070;12.698;2023-02-28T03:42:35;-0.80;1.00
14210;DHT22;7188;56.070;12.698;2023-02-28T03:45:05;-0.90;99.40
14210;DHT22;7188;56.070;12.698;2023-02-28T03:47:51;-1.10;99.90
14210;DHT22;7188;56.070;12.698;2023-02-28T03:50:36;-1.30;99.90
14210;DHT22;7188;56.070;12.698;2023-02-28T03:55:42;-0.70;1.00
14210;DHT22;7188;56.070;12.698;2023-02-28T03:58:29;0.00;1.00
14210;DHT22;7188;56.070;12.698;2023-02-28T04:01:03;0.30;1.00
14210;DHT22;7188;56.070;12.698;2023-02-28T04:03:37;0.40;1.00
14210;DHT22;7188;56.070;12.698;2023-02-28T04:06:04;0.10;1.00
14210;DHT22;7188;56.070;12.698;2023-02-28T04:08:32;-0.40;32.20
14210;DHT22;7188;56.070;12.698;2023-02-28T04:11:07;-0.70;1.00
14210;DHT22;7188;56.070;12.698;2023-02-28T04:13:34;-1.00;99.90
14210;DHT22;7188;56.070;12.698;2023-02-28T04:15:59;-0.90;1.00
14210;DHT22;7188;56.070;12.698;2023-02-28T04:18:25;-0.40;99.90
14210;DHT22;7188;56.070;12.698;2023-02-28T04:20:51;0.10;1.00
14210;DHT22;7188;56.070;12.698;2023-02-28T04:23:16;0.30;1.00
14210;DHT22;7188;56.070;12.698;2023-02-28T04:25:42;0.10;1.00
14210;DHT22;7188;56.070;12.698;2023-02-28T04:28:07;-0.30;53.10
14210;DHT22;7188;56.070;12.698;2023-02-28T04:30:33;-0.60;1.00
14210;DHT22;7188;56.070;12.698;2023-02-28T04:33:00;-0.40;99.90
14210;DHT22;7188;56.070;12.698;2023-02-28T04:35:27;-0.60;1.00
14210;DHT22;7188;56.070;12.698;2023-02-28T04:37:52;-1.00;99.90
14210;DHT22;7188;56.070;12.698;2023-02-28T04:40:18;-1.00;99.90
14210;DHT22;7188;56.070;12.698;2023-02-28T04:42:44;-0.50;99.90
14210;DHT22;7188;56.070;12.698;2023-02-28T04:45:12;-0.70;1.00
14210;DHT22;7188;56.070;12.698;2023-02-28T04:47:37;-1.00;99.90
14210;DHT22;7188;56.070;12.698;2023-02-28T04:50:03;-1.10;1.00
14210;DHT22;7188;56.070;12.698;2023-02-28T04:52:29;-1.00;42.00
14210;DHT22;7188;56.070;12.698;2023-02-28T04:54:55;-0.40;1.00
14210;DHT22;7188;56.070;12.698;2023-02-28T04:57:20;-0.30;1.00
14210;DHT22;7188;56.070;12.698;2023-02-28T04:59:46;-0.50;1.00
14210;DHT22;7188;56.070;12.698;2023-02-28T05:02:12;-0.50;1.00
14210;DHT22;7188;56.070;12.698;2023-02-28T05:04:37;-0.50;1.00
14210;DHT22;7188;56.070;12.698;2023-02-28T05:07:03;-0.10;13.40
14210;DHT22;7188;56.070;12.698;2023-02-28T05:09:29;-0.30;1.00
14210;DHT22;7188;56.070;12.698;2023-02-28T05:11:55;-0.70;1.00
14210;DHT22;7188;56.070;12.698;2023-02-28T05:14:21;-0.80;1.00
14210;DHT22;7188;56.070;12.698;2023-02-28T05:16:47;-0.90;1.00
14210;DHT22;7188;56.070;12.698;2023-02-28T05:19:12;-0.40;99.90
14210;DHT22;7188;56.070;12.698;2023-02-28T05:21:40;-0.30;99.90
14210;DHT22;7188;56.070;12.698;2023-02-28T05:24:10;0.00;99.90
14210;DHT22;7188;56.070;12.698;2023-02-28T05:26:41;0.20;99.90
14210;DHT22;7188;56.070;12.698;2023-02-28T05:29:08;0.20;1.00
14210;DHT22;7188;56.070;12.698;2023-02-28T05:31:36;0.20;1.00
14210;DHT22;7188;56.070;12.698;2023-02-28T05:34:02;0.30;1.00
14210;DHT22;7188;56.070;12.698;2023-02-28T05:36:29;0.20;1.00
14210;DHT22;7188;56.070;12.698;2023-02-28T05:38:55;0.10;1.00
14210;DHT22;7188;56.070;12.698;2023-02-28T05:41:21;0.10;1.00
14210;DHT22;7188;56.070;12.698;2023-02-28T05:43:47;0.10;1.00
14210;DHT22;7188;56.070;12.698;2023-02-28T05:46:15;0.60;1.00
14210;DHT22;7188;56.070;12.698;2023-02-28T05:48:42;0.50;1.00
14210;DHT22;7188;56.070;12.698;2023-02-28T05:51:09;0.30;1.00
14210;DHT22;7188;56.070;12.698;2023-02-28T05:53:53;0.30;1.00
14210;DHT22;7188;56.070;12.698;2023-02-28T05:56:18;0.10;1.00
14210;DHT22;7188;56.070;12.698;2023-02-28T05:58:44;-0.10;1.00
14210;DHT22;7188;56.070;12.698;2023-02-28T06:04:07;0.10;1.00
14210;DHT22;7188;56.070;12.698;2023-02-28T06:06:33;0.40;1.00
14210;DHT22;7188;56.070;12.698;2023-02-28T06:08:59;0.80;49.50
14210;DHT22;7188;56.070;12.698;2023-02-28T06:11:51;0.60;20.30
14210;DHT22;7188;56.070;12.698;2023-02-28T06:14:18;0.40;1.00
14210;DHT22;7188;56.070;12.698;2023-02-28T06:16:46;0.40;23.50
14210;DHT22;7188;56.070;12.698;2023-02-28T06:19:12;0.40;31.60
14210;DHT22;7188;56.070;12.698;2023-02-28T06:21:39;0.50;62.90
14210;DHT22;7188;56.070;12.698;2023-02-28T06:24:05;0.60;99.90
14210;DHT22;7188;56.070;12.698;2023-02-28T06:26:31;0.90;99.90
14210;DHT22;7188;56.070;12.698;2023-02-28T06:28:57;0.60;99.90
14210;DHT22;7188;56.070;12.698;2023-02-28T06:31:23;0.70;99.90
14210;DHT22;7188;56.070;12.698;2023-02-28T06:33:51;0.50;99.90
14210;DHT22;7188;56.070;12.698;2023-02-28T06:36:17;0.40;99.90
14210;DHT22;7188;56.070;12.698;2023-02-28T06:38:45;0.30;99.90
14210;DHT22;7188;56.070;12.698;2023-02-28T06:41:14;0.20;99.90
14210;DHT22;7188;56.070;12.698;2023-02-28T06:43:41;0.20;99.90
14210;DHT22;7188;56.070;12.698;2023-02-28T06:46:11;0.10;99.90
14210;DHT22;7188;56.070;12.698;2023-02-28T06:48:37;0.10;99.90
14210;DHT22;7188;56.070;12.698;2023-02-28T06:51:08;0.70;99.90
14210;DHT22;7188;56.070;12.698;2023-02-28T06:53:34;0.60;99.90
14210;DHT22;7188;56.070;12.698;2023-02-28T06:56:04;0.40;99.90
14210;DHT22;7188;56.070;12.698;2023-02-28T06:58:31;0.20;99.90
14210;DHT22;7188;56.070;12.698;2023-02-28T07:00:56;0.20;99.90
14210;DHT22;7188;56.070;12.698;2023-02-28T07:03:22;0.20;99.90
14210;DHT22;7188;56.070;12.698;2023-02-28T07:05:48;0.60;99.90
14210;DHT22;7188;56.070;12.698;2023-02-28T07:08:14;0.70;99.90
14210;DHT22;7188;56.070;12.698;2023-02-28T07:10:41;0.80;99.90
14210;DHT22;7188;56.070;12.698;2023-02-28T07:13:08;0.70;99.90
14210;DHT22;7188;56.070;12.698;2023-02-28T07:15:35;0.70;99.90
14210;DHT22;7188;56.070;12.698;2023-02-28T07:18:01;0.90;99.90
14210;DHT22;7188;56.070;12.698;2023-02-28T07:20:27;0.90;99.90
14210;DHT22;7188;56.070;12.698;2023-02-28T07:22:52;1.40;99.90
14210;DHT22;7188;56.070;12.698;2023-02-28T07:25:29;1.70;99.90
14210;DHT22;7188;56.070;12.698;2023-02-28T07:27:55;2.10;1.00
14210;DHT22;7188;56.070;12.698;2023-02-28T07:30:21;2.20;1.00
14210;DHT22;7188;56.070;12.698;2023-02-28T07:32:47;2.40;1.00
14210;DHT22;7188;56.070;12.698;2023-02-28T07:35:13;2.60;1.00
14210;DHT22;7188;56.070;12.698;2023-02-28T07:37:41;2.60;1.00
14210;DHT22;7188;56.070;12.698;2023-02-28T07:40:09;2.70;1.00
14210;DHT22;7188;56.070;12.698;2023-02-28T07:42:40;2.80;1.00
14210;DHT22;7188;56.070;12.698;2023-02-28T07:45:07;3.00;1.00
14210;DHT22;7188;56.070;12.698;2023-02-28T07:47:40;3.00;99.90
14210;DHT22;7188;56.070;12.698;2023-02-28T07:50:09;3.00;99.90
14210;DHT22;7188;56.070;12.698;2023-02-28T07:52:36;3.00;99.90
14210;DHT22;7188;56.070;12.698;2023-02-28T07:55:03;3.20;99.90
14210;DHT22;7188;56.070;12.698;2023-02-28T07:57:30;3.20;99.90
14210;DHT22;7188;56.070;12.698;2023-02-28T07:59:55;3.20;99.90
14210;DHT22;7188;56.070;12.698;2023-02-28T08:02:21;3.40;99.90
14210;DHT22;7188;56.070;12.698;2023-02-28T08:04:47;3.50;99.90
14210;DHT22;7188;56.070;12.698;2023-02-28T08:07:14;3.50;99.90
14210;DHT22;7188;56.070;12.698;2023-02-28T08:09:40;3.50;99.90
14210;DHT22;7188;56.070;12.698;2023-02-28T08:12:07;3.50;34.70
14210;DHT22;7188;56.070;12.698;2023-02-28T08:14:33;3.50;14.20
14210;DHT22;7188;56.070;12.698;2023-02-28T08:16:58;3.60;1.00
14210;DHT22;7188;56.070;12.698;2023-02-28T08:19:24;3.90;1.00
14210;DHT22;7188;56.070;12.698;2023-02-28T08:21:50;4.10;1.00
14210;DHT22;7188;56.070;12.698;2023-02-28T08:24:16;4.10;1.00
14210;DHT22;7188;56.070;12.698;2023-02-28T08:26:41;4.20;99.90
14210;DHT22;7188;56.070;12.698;2023-02-28T08:29:08;4.30;99.90
14210;DHT22;7188;56.070;12.698;2023-02-28T08:31:34;4.10;78.90
14210;DHT22;7188;56.070;12.698;2023-02-28T08:34:05;4.10;1.00
14210;DHT22;7188;56.070;12.698;2023-02-28T08:36:31;4.20;1.00
14210;DHT22;7188;56.070;12.698;2023-02-28T08:38:57;4.20;1.00
14210;DHT22;7188;56.070;12.698;2023-02-28T08:41:23;4.20;99.90
14210;DHT22;7188;56.070;12.698;2023-02-28T08:43:48;4.30;1.00
14210;DHT22;7188;56.070;12.698;2023-02-28T08:46:14;4.30;1.00
14210;DHT22;7188;56.070;12.698;2023-02-28T08:48:40;4.40;67.80
14210;DHT22;7188;56.070;12.698;2023-02-28T08:51:10;4.50;1.00
14210;DHT22;7188;56.070;12.698;2023-02-28T08:53:38;4.40;1.00
14210;DHT22;7188;56.070;12.698;2023-02-28T08:56:07;4.50;99.90
14210;DHT22;7188;56.070;12.698;2023-02-28T08:58:36;4.50;53.20
14210;DHT22;7188;56.070;12.698;2023-02-28T09:01:12;4.60;1.00
14210;DHT22;7188;56.070;12.698;2023-02-28T09:03:38;4.60;99.90
14210;DHT22;7188;56.070;12.698;2023-02-28T09:06:05;4.70;1.00
14210;DHT22;7188;56.070;12.698;2023-02-28T09:08:31;4.70;99.90
14210;DHT22;7188;56.070;12.698;2023-02-28T09:10:58;4.70;99.90
14210;DHT22;7188;56.070;12.698;2023-02-28T09:13:26;4.80;1.00
14210;DHT22;7188;56.070;12.698;2023-02-28T09:15:52;4.90;1.00
14210;DHT22;7188;56.070;12.698;2023-02-28T09:18:18;4.90;1.00
14210;DHT22;7188;56.070;12.698;2023-02-28T09:20:45;5.00;1.00
14210;DHT22;7188;56.070;12.698;2023-02-28T09:23:12;5.10;1.00
14210;DHT22;7188;56.070;12.698;2023-02-28T09:25:50;5.30;1.00
14210;DHT22;7188;56.070;12.698;2023-02-28T09:28:17;5.30;1.00
14210;DHT22;7188;56.070;12.698;2023-02-28T09:30:48;5.30;99.90
14210;DHT22;7188;56.070;12.698;2023-02-28T09:33:15;5.40;99.90
14210;DHT22;7188;56.070;12.698;2023-02-28T09:35:41;5.50;99.90
14210;DHT22;7188;56.070;12.698;2023-02-28T09:38:09;5.50;99.90
14210;DHT22;7188;56.070;12.698;2023-02-28T09:40:39;5.50;99.90
14210;DHT22;7188;56.070;12.698;2023-02-28T09:43:12;5.60;99.90
14210;DHT22;7188;56.070;12.698;2023-02-28T09:45:42;5.60;1.00
14210;DHT22;7188;56.070;12.698;2023-02-28T09:48:19;5.50;10.80
14210;DHT22;7188;56.070;12.698;2023-02-28T09:50:52;5.50;44.50
14210;DHT22;7188;56.070;12.698;2023-02-28T09:53:53;5.50;99.10
14210;DHT22;7188;56.070;12.698;2023-02-28T09:56:20;5.60;99.90
14210;DHT22;7188;56.070;12.698;2023-02-28T09:59:02;5.60;27.60
14210;DHT22;7188;56.070;12.698;2023-02-28T10:02:04;5.70;1.00
14210;DHT22;7188;56.070;12.698;2023-02-28T10:10:07;5.80;1.00
14210;DHT22;7188;56.070;12.698;2023-02-28T10:12:42;5.90;1.00
14210;DHT22;7188;56.070;12.698;2023-02-28T10:15:14;5.90;1.00
14210;DHT22;7188;56.070;12.698;2023-02-28T10:17:43;5.90;1.00
14210;DHT22;7188;56.070;12.698;2023-02-28T10:20:20;6.10;1.00
14210;DHT22;7188;56.070;12.698;2023-02-28T10:23:17;6.20;1.00
14210;DHT22;7188;56.070;12.698;2023-02-28T10:26:00;6.40;1.00
14210;DHT22;7188;56.070;12.698;2023-02-28T10:28:29;6.40;99.90
14210;DHT22;7188;56.070;12.698;2023-02-28T10:30:56;6.40;1.00
14210;DHT22;7188;56.070;12.698;2023-02-28T10:35:51;6.50;1.00
14210;DHT22;7188;56.070;12.698;2023-02-28T10:38:33;6.50;1.00
14210;DHT22;7188;56.070;12.698;2023-02-28T10:41:11;6.50;1.00
14210;DHT22;7188;56.070;12.698;2023-02-28T10:43:40;6.60;1.00
14210;DHT22;7188;56.070;12.698;2023-02-28T10:48:47;6.60;1.00
14210;DHT22;7188;56.070;12.698;2023-02-28T10:51:18;6.60;1.00
14210;DHT22;7188;56.070;12.698;2023-02-28T10:53:52;6.50;1.00
14210;DHT22;7188;56.070;12.698;2023-02-28T10:56:21;6.60;1.00
14210;DHT22;7188;56.070;12.698;2023-02-28T11:01:24;6.60;1.00
14210;DHT22;7188;56.070;12.698;2023-02-28T11:03:51;6.70;1.00
14210;DHT22;7188;56.070;12.698;2023-02-28T11:06:18;6.80;1.00
14210;DHT22;7188;56.070;12.698;2023-02-28T11:08:56;6.80;1.00
14210;DHT22;7188;56.070;12.698;2023-02-28T11:11:25;6.70;99.90
14210;DHT22;7188;56.070;12.698;2023-02-28T11:13:53;6.70;99.90
14210;DHT22;7188;56.070;12.698;2023-02-28T11:16:20;6.70;99.90
14210;DHT22;7188;56.070;12.698;2023-02-28T11:18:49;6.60;99.90
14210;DHT22;7188;56.070;12.698;2023-02-28T11:23:52;6.60;99.90
14210;DHT22;7188;56.070;12.698;2023-02-28T11:26:44;6.60;99.90
14210;DHT22;7188;56.070;12.698;2023-02-28T11:29:18;6.70;99.90
14210;DHT22;7188;56.070;12.698;2023-02-28T11:37:37;6.70;99.90
14210;DHT22;7188;56.070;12.698;2023-02-28T11:40:12;6.70;99.90
14210;DHT22;7188;56.070;12.698;2023-02-28T11:42:47;6.80;99.90
14210;DHT22;7188;56.070;12.698;2023-02-28T11:48:26;6.90;99.90
14210;DHT22;7188;56.070;12.698;2023-02-28T11:52:17;7.00;99.90
14210;DHT22;7188;56.070;12.698;2023-02-28T11:54:22;6.90;99.90
14210;DHT22;7188;56.070;12.698;2023-02-28T11:57:01;7.10;99.90
14210;DHT22;7188;56.070;12.698;2023-02-28T11:59:51;7.00;99.90
14210;DHT22;7188;56.070;12.698;2023-02-28T12:02:29;7.00;99.90
14210;DHT22;7188;56.070;12.698;2023-02-28T12:14:32;6.80;99.90
14210;DHT22;7188;56.070;12.698;2023-02-28T12:19:32;7.00;99.90
14210;DHT22;7188;56.070;12.698;2023-02-28T12:22:49;7.00;99.90
14210;DHT22;7188;56.070;12.698;2023-02-28T12:28:13;7.00;99.90
14210;DHT22;7188;56.070;12.698;2023-02-28T12:33:28;7.10;99.90
14210;DHT22;7188;56.070;12.698;2023-02-28T12:35:57;7.00;99.90
14210;DHT22;7188;56.070;12.698;2023-02-28T12:39:33;7.10;99.90
14210;DHT22;7188;56.070;12.698;2023-02-28T12:41:45;6.90;99.90
14210;DHT22;7188;56.070;12.698;2023-02-28T12:44:20;6.90;99.90
14210;DHT22;7188;56.070;12.698;2023-02-28T12:46:52;6.90;99.90
14210;DHT22;7188;56.070;12.698;2023-02-28T12:49:34;7.00;99.90
14210;DHT22;7188;56.070;12.698;2023-02-28T12:52:03;7.00;99.90
14210;DHT22;7188;56.070;12.698;2023-02-28T12:58:08;6.90;99.90
14210;DHT22;7188;56.070;12.698;2023-02-28T13:09:03;7.00;99.90
14210;DHT22;7188;56.070;12.698;2023-02-28T13:11:50;6.90;99.90
14210;DHT22;7188;56.070;12.698;2023-02-28T13:14:36;7.00;99.90
14210;DHT22;7188;56.070;12.698;2023-02-28T13:17:11;7.00;99.90
14210;DHT22;7188;56.070;12.698;2023-02-28T13:22:39;7.20;99.90
14210;DHT22;7188;56.070;12.698;2023-02-28T13:27:59;7.40;99.90
14210;DHT22;7188;56.070;12.698;2023-02-28T13:33:26;7.50;99.90
14210;DHT22;7188;56.070;12.698;2023-02-28T13:44:08;7.50;99.90
14210;DHT22;7188;56.070;12.698;2023-02-28T13:49:26;7.50;99.90
14210;DHT22;7188;56.070;12.698;2023-02-28T13:52:21;7.60;99.90
14210;DHT22;7188;56.070;12.698;2023-02-28T13:57:50;7.50;99.90
14210;DHT22;7188;56.070;12.698;2023-02-28T14:09:38;7.60;99.90
14210;DHT22;7188;56.070;12.698;2023-02-28T14:11:41;7.60;99.90
14210;DHT22;7188;56.070;12.698;2023-02-28T14:14:09;7.60;99.90
14210;DHT22;7188;56.070;12.698;2023-02-28T14:16:56;7.60;99.90
14210;DHT22;7188;56.070;12.698;2023-02-28T14:19:28;7.60;99.90
14210;DHT22;7188;56.070;12.698;2023-02-28T14:27:29;7.60;99.90
14210;DHT22;7188;56.070;12.698;2023-02-28T14:38:25;7.30;99.90
14210;DHT22;7188;56.070;12.698;2023-02-28T14:40:56;7.20;99.90
14210;DHT22;7188;56.070;12.698;2023-02-28T14:43:25;7.10;99.90
14210;DHT22;7188;56.070;12.698;2023-02-28T14:46:02;7.00;99.90
14210;DHT22;7188;56.070;12.698;2023-02-28T14:48:29;7.00;99.90
14210;DHT22;7188;56.070;12.698;2023-02-28T14:51:00;6.90;99.90
14210;DHT22;7188;56.070;12.698;2023-02-28T14:53:29;7.00;99.90
14210;DHT22;7188;56.070;12.698;2023-02-28T14:55:56;6.90;99.90
14210;DHT22;7188;56.070;12.698;2023-02-28T14:58:26;6.90;99.90
14210;DHT22;7188;56.070;12.698;2023-02-28T15:00:55;6.90;99.90
14210;DHT22;7188;56.070;12.698;2023-02-28T15:03:31;6.80;99.90
14210;DHT22;7188;56.070;12.698;2023-02-28T15:06:18;6.80;99.90
14210;DHT22;7188;56.070;12.698;2023-02-28T15:08:44;6.80;99.90
14210;DHT22;7188;56.070;12.698;2023-02-28T15:11:14;6.70;99.90
14210;DHT22;7188;56.070;12.698;2023-02-28T15:13:48;6.70;99.90
14210;DHT22;7188;56.070;12.698;2023-02-28T15:16:19;6.60;99.90
14210;DHT22;7188;56.070;12.698;2023-02-28T15:21:25;6.60;99.90
14210;DHT22;7188;56.070;12.698;2023-02-28T15:26:33;6.50;99.90
14210;DHT22;7188;56.070;12.698;2023-02-28T15:29:03;6.40;99.90
14210;DHT22;7188;56.070;12.698;2023-02-28T15:31:33;6.50;99.90
14210;DHT22;7188;56.070;12.698;2023-02-28T15:34:05;6.40;99.90
14210;DHT22;7188;56.070;12.698;2023-02-28T15:36:33;6.40;99.90
14210;DHT22;7188;56.070;12.698;2023-02-28T15:39:01;6.40;99.90
14210;DHT22;7188;56.070;12.698;2023-02-28T15:41:29;6.30;99.90
14210;DHT22;7188;56.070;12.698;2023-02-28T15:44:23;6.30;99.90
14210;DHT22;7188;56.070;12.698;2023-02-28T15:49:28;6.10;99.90
14210;DHT22;7188;56.070;12.698;2023-02-28T15:51:56;6.10;99.90
14210;DHT22;7188;56.070;12.698;2023-02-28T15:54:33;6.00;99.90
14210;DHT22;7188;56.070;12.698;2023-02-28T15:57:07;6.00;99.90
14210;DHT22;7188;56.070;12.698;2023-02-28T15:59:36;6.00;99.90
14210;DHT22;7188;56.070;12.698;2023-02-28T16:04:29;5.90;99.90
14210;DHT22;7188;56.070;12.698;2023-02-28T16:09:25;5.70;99.90
14210;DHT22;7188;56.070;12.698;2023-02-28T16:11:55;5.70;99.90
14210;DHT22;7188;56.070;12.698;2023-02-28T16:14:24;5.70;99.90
14210;DHT22;7188;56.070;12.698;2023-02-28T16:16:53;5.70;99.90
14210;DHT22;7188;56.070;12.698;2023-02-28T16:19:19;5.60;99.90
14210;DHT22;7188;56.070;12.698;2023-02-28T16:21:46;5.60;99.90
14210;DHT22;7188;56.070;12.698;2023-02-28T16:24:12;5.50;99.90
14210;DHT22;7188;56.070;12.698;2023-02-28T16:26:40;5.40;99.90
14210;DHT22;7188;56.070;12.698;2023-02-28T16:29:08;5.30;99.90
14210;DHT22;7188;56.070;12.698;2023-02-28T16:31:37;5.30;99.90
14210;DHT22;7188;56.070;12.698;2023-02-28T16:34:03;5.20;99.90
14210;DHT22;7188;56.070;12.698;2023-02-28T16:36:29;5.10;99.90
14210;DHT22;7188;56.070;12.698;2023-02-28T16:38:55;5.10;99.90
14210;DHT22;7188;56.070;12.698;2023-02-28T16:41:26;5.00;99.90
14210;DHT22;7188;56.070;12.698;2023-02-28T16:43:54;4.90;1.00
14210;DHT22;7188;56.070;12.698;2023-02-28T16:46:34;4.90;1.00
14210;DHT22;7188;56.070;12.698;2023-02-28T16:48:59;4.90;1.00
14210;DHT22;7188;56.070;12.698;2023-02-28T16:51:25;4.80;1.00
14210;DHT22;7188;56.070;12.698;2023-02-28T16:53:51;4.70;1.00
14210;DHT22;7188;56.070;12.698;2023-02-28T16:56:23;4.60;1.00
14210;DHT22;7188;56.070;12.698;2023-02-28T16:58:51;4.40;1.00
14210;DHT22;7188;56.070;12.698;2023-02-28T17:01:18;4.40;1.00
14210;DHT22;7188;56.070;12.698;2023-02-28T17:03:48;4.30;1.00
14210;DHT22;7188;56.070;12.698;2023-02-28T17:06:22;4.20;1.00
14210;DHT22;7188;56.070;12.698;2023-02-28T17:08:52;4.10;1.00
14210;DHT22;7188;56.070;12.698;2023-02-28T17:11:18;4.10;1.00
14210;DHT22;7188;56.070;12.698;2023-02-28T17:13:44;4.00;1.00
14210;DHT22;7188;56.070;12.698;2023-02-28T17:16:30;4.00;1.00
14210;DHT22;7188;56.070;12.698;2023-02-28T17:19:03;4.00;1.00
14210;DHT22;7188;56.070;12.698;2023-02-28T17:21:30;3.90;1.00
14210;DHT22;7188;56.070;12.698;2023-02-28T17:23:56;3.90;1.00
14210;DHT22;7188;56.070;12.698;2023-02-28T17:26:24;3.90;94.80
14210;DHT22;7188;56.070;12.698;2023-02-28T17:28:54;3.80;99.90
14210;DHT22;7188;56.070;12.698;2023-02-28T17:31:22;3.70;99.90
14210;DHT22;7188;56.070;12.698;2023-02-28T17:33:48;3.70;99.90
14210;DHT22;7188;56.070;12.698;2023-02-28T17:36:15;3.70;99.90
14210;DHT22;7188;56.070;12.698;2023-02-28T17:38:42;3.60;99.90
14210;DHT22;7188;56.070;12.698;2023-02-28T17:41:11;3.60;1.00
14210;DHT22;7188;56.070;12.698;2023-02-28T17:43:37;3.60;1.00
14210;DHT22;7188;56.070;12.698;2023-02-28T17:46:02;3.70;64.20
14210;DHT22;7188;56.070;12.698;2023-02-28T17:48:31;3.70;99.90
14210;DHT22;7188;56.070;12.698;2023-02-28T17:50:58;3.70;1.00
14210;DHT22;7188;56.070;12.698;2023-02-28T17:53:23;3.70;1.00
14210;DHT22;7188;56.070;12.698;2023-02-28T17:55:50;3.70;1.00
14210;DHT22;7188;56.070;12.698;2023-02-28T17:58:15;3.60;62.20
14210;DHT22;7188;56.070;12.698;2023-02-28T18:00:42;3.50;99.90
14210;DHT22;7188;56.070;12.698;2023-02-28T18:03:07;3.40;1.00
14210;DHT22;7188;56.070;12.698;2023-02-28T18:05:34;3.40;1.00
14210;DHT22;7188;56.070;12.698;2023-02-28T18:08:01;3.40;99.90
14210;DHT22;7188;56.070;12.698;2023-02-28T18:10:27;3.40;1.00
14210;DHT22;7188;56.070;12.698;2023-02-28T18:12:53;3.40;99.90
14210;DHT22;7188;56.070;12.698;2023-02-28T18:15:20;3.40;1.00
14210;DHT22;7188;56.070;12.698;2023-02-28T18:17:48;3.50;99.90
14210;DHT22;7188;56.070;12.698;2023-02-28T18:20:15;3.40;99.90
14210;DHT22;7188;56.070;12.698;2023-02-28T18:22:42;3.30;1.00
14210;DHT22;7188;56.070;12.698;2023-02-28T18:25:09;3.30;1.00
14210;DHT22;7188;56.070;12.698;2023-02-28T18:27:39;3.30;99.90
14210;DHT22;7188;56.070;12.698;2023-02-28T18:30:05;3.30;1.00
14210;DHT22;7188;56.070;12.698;2023-02-28T18:32:31;3.30;1.00